»·PEaware :: N349AF KSNA-KSNA

N349AF :: KSNA-KSNA

FLIGHT INFORMATION

Flight Status: Arrived
Operator: Privately registered:
United States
More flights under this callsign
Pilot: Sean M. (20132)
Aircraft: Unknown
(SF50)
More flights by this aircraft type
Origin: KSNA John Wayne-Orange Co
United States
Destination: KSNA John Wayne-Orange Co
United States
More flights between these airports :: More routes between these airports
Route: +SLI
File this flight plan on PilotEdge
Remarks: SLI ILS 20R
Altitude:
(Current/Filed)
4,000ft
Speed:
(Current/Filed)
200kts
Departed: 10-Oct-18 02:50 PM
Arrived: 10-Oct-18 03:15 PM
Distance/Time
Traveled:
0nm/0:25
Distance/Time
To Go:
Arrived

Flight Plot

Page will automatically refresh every two minutes.


Map Options




Map Legend


Flown Route
Filed Route
Departure Airport
Arrival Airport
Navaid (VOR, NDB)
Fix

Horizontal Profiles

Position Reports

Time Latitude Longitude Heading Altitude Ground
Speed
10-Oct-18 14:26 33.672612 -117.873182 208 60ft 0kts
10-Oct-18 14:27 33.672612 -117.873182 208 60ft 0kts
10-Oct-18 14:28 33.672612 -117.873182 208 60ft 0kts
10-Oct-18 14:29 33.672612 -117.873182 208 60ft 0kts
10-Oct-18 14:30 33.672612 -117.873182 208 60ft 0kts
10-Oct-18 14:31 33.672612 -117.873182 208 60ft 0kts
10-Oct-18 14:32 33.672612 -117.873182 208 60ft 0kts
10-Oct-18 14:33 33.672612 -117.873182 208 60ft 0kts
10-Oct-18 14:34 33.672612 -117.873182 208 60ft 0kts
10-Oct-18 14:35 33.672201 -117.873236 98 60ft 15kts
10-Oct-18 14:36 33.674259 -117.871186 30 60ft 21kts
10-Oct-18 14:37 33.675978 -117.869968 23 60ft 0kts
10-Oct-18 14:38 33.677303 -117.869281 25 60ft 11kts
10-Oct-18 14:39 33.679697 -117.867919 19 60ft 13kts
10-Oct-18 14:40 33.681471 -117.866861 26 60ft 5kts
10-Oct-18 14:41 33.681845 -117.866529 55 60ft 0kts
10-Oct-18 14:42 33.681845 -117.866529 55 60ft 0kts
10-Oct-18 14:43 33.681845 -117.866529 55 60ft 0kts
10-Oct-18 14:44 33.681845 -117.866529 55 60ft 0kts
10-Oct-18 14:45 33.681845 -117.866529 55 60ft 0kts
10-Oct-18 14:46 33.681845 -117.866529 55 60ft 0kts
10-Oct-18 14:47 33.681845 -117.866529 55 60ft 0kts
10-Oct-18 14:48 33.681845 -117.866529 55 60ft 0kts
10-Oct-18 14:49 33.681845 -117.866529 55 60ft 0kts
10-Oct-18 14:50 33.681845 -117.866529 55 60ft 0kts
10-Oct-18 14:51 33.679548 -117.866291 207 60ft 24kts
10-Oct-18 14:52 33.658351 -117.875015 186 1824ft 119kts
10-Oct-18 14:53 33.636579 -117.877078 185 4054ft 117kts
10-Oct-18 14:54 33.606103 -117.880318 185 5020ft 190kts
10-Oct-18 14:55 33.558866 -117.885681 185 5008ft 207kts
10-Oct-18 14:56 33.512174 -117.907375 250 4980ft 210kts
10-Oct-18 14:57 33.542858 -117.937652 21 5002ft 206kts
10-Oct-18 14:58 33.583515 -117.918735 16 5016ft 202kts
10-Oct-18 14:59 33.618300 -117.904706 16 5015ft 199kts
10-Oct-18 15:00 33.656184 -117.889372 16 5016ft 195kts
10-Oct-18 15:01 33.692154 -117.874875 16 5011ft 194kts
10-Oct-18 15:02 33.730700 -117.859289 16 5015ft 193kts
10-Oct-18 15:03 33.769471 -117.843639 16 5015ft 192kts
10-Oct-18 15:04 33.817191 -117.834558 0 4825ft 200kts
10-Oct-18 15:05 33.868910 -117.831495 0 4486ft 204kts
10-Oct-18 15:06 33.921948 -117.828581 0 4009ft 209kts
10-Oct-18 15:07 33.971810 -117.825596 4 3998ft 194kts
10-Oct-18 15:08 33.983077 -117.780468 128 3958ft 185kts
10-Oct-18 15:09 33.941690 -117.765176 170 4006ft 177kts
10-Oct-18 15:10 33.897810 -117.756148 170 3997ft 169kts
10-Oct-18 15:11 33.856328 -117.751764 190 4006ft 161kts
10-Oct-18 15:12 33.810803 -117.782187 207 3315ft 178kts
10-Oct-18 15:13 33.778188 -117.803292 207 3046ft 179kts
10-Oct-18 15:14 33.737555 -117.829354 208 2554ft 180kts
10-Oct-18 15:15 33.711124 -117.845544 209 1688ft 110kts
10-Oct-18 15:16 33.689956 -117.859843 207 262ft 84kts
10-Oct-18 15:17 33.676234 -117.868663 213 60ft 15kts
10-Oct-18 15:18 33.676219 -117.871043 271 60ft 0kts

Navigation Log

Ident Type
1. KSNA Airport
2. SLI Navaid
3. KSNA Airport